Time;durP1;ratioP1;P1;durP2;ratioP2;P2;SDS_P1;SDS_P2;PMS_P1;PMS_P2;Temp;Humidity;BMP_temperature;BMP_pressure;BME280_temperature;BME280_humidity;BME280_pressure;Samples;Min_cycle;Max_cycle;Signal;HPM_P1;HPM_P2
2021/09/15 00:00:12;;;;;;;6.37;5.80;;;21.70;99.90;;;;;;4920956;29;20178;-62
2021/09/15 00:02:37;;;;;;;7.40;6.70;;;21.70;99.90;;;;;;4934377;29;20205;-62
2021/09/15 00:05:04;;;;;;;7.37;6.73;;;21.70;99.90;;;;;;4921515;29;20186;-62
2021/09/15 00:07:30;;;;;;;7.10;6.50;;;21.60;99.90;;;;;;4931862;29;20211;-62
2021/09/15 00:09:55;;;;;;;7.63;6.93;;;21.50;99.90;;;;;;4933772;29;20429;-62
2021/09/15 00:12:21;;;;;;;6.83;6.20;;;21.50;99.90;;;;;;4934991;29;20215;-62
2021/09/15 00:14:46;;;;;;;8.30;6.23;;;21.50;99.90;;;;;;4922391;29;20182;-64
2021/09/15 00:17:12;;;;;;;8.13;6.83;;;21.60;99.90;;;;;;4915788;29;20550;-64
2021/09/15 00:19:37;;;;;;;9.00;6.93;;;21.60;99.90;;;;;;4920947;29;20186;-64
2021/09/15 00:22:03;;;;;;;7.27;6.57;;;21.60;99.90;;;;;;4916580;29;20743;-64
2021/09/15 00:24:28;;;;;;;6.13;5.50;;;21.60;99.90;;;;;;4919429;29;20186;-64
2021/09/15 00:26:54;;;;;;;7.23;6.53;;;21.50;99.90;;;;;;4915788;29;20187;-64
2021/09/15 00:29:19;;;;;;;8.27;7.03;;;21.50;99.90;;;;;;4924064;29;20217;-62
2021/09/15 00:31:45;;;;;;;7.10;6.37;;;21.30;99.90;;;;;;4932107;29;20201;-62
2021/09/15 00:34:10;;;;;;;7.37;6.67;;;21.30;99.90;;;;;;4930165;29;20181;-62
2021/09/15 00:36:36;;;;;;;6.87;6.30;;;21.40;99.90;;;;;;4925124;29;20182;-63
2021/09/15 00:39:01;;;;;;;6.87;6.27;;;21.40;99.90;;;;;;4931305;29;20181;-62
2021/09/15 00:41:27;;;;;;;6.97;6.37;;;21.40;99.90;;;;;;4918900;29;20178;-62
2021/09/15 00:43:56;;;;;;;8.13;7.03;;;21.40;99.90;;;;;;4928079;29;20256;-62
2021/09/15 00:46:22;;;;;;;6.67;6.17;;;21.40;99.90;;;;;;4915774;29;20173;-62
2021/09/15 00:48:47;;;;;;;7.80;7.10;;;21.40;99.90;;;;;;4923437;29;20421;-62
2021/09/15 00:51:13;;;;;;;7.10;6.57;;;21.40;99.90;;;;;;4934685;29;20272;-62
2021/09/15 00:53:38;;;;;;;7.47;6.87;;;21.20;99.90;;;;;;4934930;29;20205;-63
2021/09/15 00:56:04;;;;;;;7.00;6.50;;;21.20;99.90;;;;;;4934755;29;20185;-63
2021/09/15 00:58:30;;;;;;;7.23;6.63;;;21.20;99.90;;;;;;4934391;29;20170;-62
2021/09/15 01:00:55;;;;;;;8.50;7.70;;;21.00;99.90;;;;;;4928358;29;20537;-64
2021/09/15 01:03:21;;;;;;;7.37;6.87;;;21.10;99.90;;;;;;4929557;29;20563;-63
2021/09/15 01:05:46;;;;;;;8.80;8.10;;;21.10;99.90;;;;;;4921893;29;20197;-63
2021/09/15 01:08:14;;;;;;;8.57;7.93;;;21.10;99.90;;;;;;4932520;29;20193;-63
2021/09/15 01:10:40;;;;;;;7.50;6.90;;;21.10;99.90;;;;;;4925232;29;20187;-62
2021/09/15 01:13:06;;;;;;;9.37;8.50;;;21.10;99.90;;;;;;4930494;29;20621;-63
2021/09/15 01:15:32;;;;;;;8.57;7.60;;;21.10;99.90;;;;;;4930286;29;20527;-62
2021/09/15 01:17:57;;;;;;;9.23;7.70;;;21.20;99.90;;;;;;4918880;29;20579;-62
2021/09/15 01:20:23;;;;;;;8.07;7.33;;;21.10;99.90;;;;;;4929248;29;20220;-63
2021/09/15 01:22:48;;;;;;;9.17;8.37;;;21.20;99.90;;;;;;4938066;29;20198;-63
2021/09/15 01:25:14;;;;;;;8.20;7.40;;;21.10;99.90;;;;;;4926882;29;20284;-63
2021/09/15 01:27:39;;;;;;;8.60;7.90;;;21.10;99.90;;;;;;4935998;29;20710;-63
2021/09/15 01:30:06;;;;;;;9.70;8.47;;;21.10;99.90;;;;;;4928202;29;20699;-63
2021/09/15 01:32:32;;;;;;;9.93;7.70;;;21.10;99.90;;;;;;4926212;29;20452;-63
2021/09/15 01:34:57;;;;;;;10.53;8.07;;;21.10;99.90;;;;;;4925749;29;20440;-63
2021/09/15 01:37:23;;;;;;;9.50;8.17;;;21.20;99.90;;;;;;4925920;29;20175;-63
2021/09/15 01:39:48;;;;;;;8.90;8.10;;;21.20;99.90;;;;;;4924777;29;20268;-63
2021/09/15 01:42:14;;;;;;;8.30;7.50;;;21.30;99.90;;;;;;4922595;29;20488;-63
2021/09/15 01:44:43;;;;;;;8.83;8.13;;;21.30;99.90;;;;;;4922509;29;20210;-63
2021/09/15 01:47:11;;;;;;;9.80;7.50;;;21.20;99.90;;;;;;4933587;29;20182;-63
2021/09/15 01:49:38;;;;;;;7.80;7.10;;;21.10;99.90;;;;;;4930425;29;20834;-63
2021/09/15 01:52:06;;;;;;;8.97;8.10;;;21.00;99.90;;;;;;4919314;29;20466;-63
2021/09/15 01:54:31;;;;;;;8.33;7.63;;;21.00;99.90;;;;;;4921927;29;20433;-63
2021/09/15 01:56:57;;;;;;;7.27;6.77;;;21.00;99.90;;;;;;4920249;29;20467;-63
2021/09/15 01:59:22;;;;;;;8.83;7.87;;;21.10;99.90;;;;;;4918133;29;20206;-63
2021/09/15 02:01:48;;;;;;;8.73;8.03;;;21.00;99.90;;;;;;4923332;29;20557;-63
2021/09/15 02:04:14;;;;;;;9.17;8.50;;;21.00;99.90;;;;;;4932120;29;20182;-63
2021/09/15 02:06:40;;;;;;;9.00;8.20;;;21.00;99.90;;;;;;4926933;29;20445;-62
2021/09/15 02:09:06;;;;;;;8.80;8.20;;;20.80;99.90;;;;;;4931864;29;20177;-63
2021/09/15 02:11:33;;;;;;;10.00;8.20;;;20.70;99.90;;;;;;4929007;29;20191;-63
2021/09/15 02:13:59;;;;;;;8.97;8.30;;;20.60;99.90;;;;;;4925405;29;20437;-63
2021/09/15 02:16:25;;;;;;;11.00;9.03;;;20.50;99.90;;;;;;4929674;29;20494;-63
2021/09/15 02:18:51;;;;;;;9.23;8.43;;;20.40;99.90;;;;;;4925497;29;20214;-63
2021/09/15 02:21:19;;;;;;;9.90;8.90;;;20.40;99.90;;;;;;4931451;29;20436;-63
2021/09/15 02:23:45;;;;;;;9.37;8.67;;;20.40;99.90;;;;;;4928140;29;20488;-63
2021/09/15 02:26:12;;;;;;;9.70;8.67;;;20.40;99.90;;;;;;4932612;29;20465;-63
2021/09/15 02:28:38;;;;;;;9.60;8.80;;;20.40;99.90;;;;;;4918983;29;20186;-63
2021/09/15 02:31:04;;;;;;;8.80;8.10;;;20.40;99.90;;;;;;4933408;29;20433;-63
2021/09/15 02:33:30;;;;;;;9.83;8.20;;;20.40;99.90;;;;;;4921835;29;21051;-63
2021/09/15 02:35:55;;;;;;;9.20;8.50;;;20.30;99.90;;;;;;4934187;29;20942;-63
2021/09/15 02:38:21;;;;;;;9.90;9.10;;;20.30;99.90;;;;;;4927229;29;20186;-63
2021/09/15 02:40:47;;;;;;;9.50;8.70;;;20.30;99.90;;;;;;4927365;29;20184;-63
2021/09/15 02:43:12;;;;;;;9.20;8.40;;;20.30;99.90;;;;;;4935788;29;20734;-62
2021/09/15 02:45:38;;;;;;;10.10;9.20;;;20.50;99.90;;;;;;4936288;29;20577;-63
2021/09/15 02:48:04;;;;;;;9.30;8.40;;;20.50;99.90;;;;;;4936246;29;20182;-63
2021/09/15 02:50:29;;;;;;;8.97;8.17;;;20.50;99.90;;;;;;4924763;29;20186;-63
2021/09/15 02:52:55;;;;;;;8.77;7.97;;;20.50;99.90;;;;;;4926949;29;20529;-63
2021/09/15 02:55:20;;;;;;;8.53;7.93;;;20.60;99.90;;;;;;4917459;29;20170;-63
2021/09/15 02:57:46;;;;;;;8.97;8.27;;;20.60;99.90;;;;;;4934353;29;20719;-62
2021/09/15 03:00:13;;;;;;;9.13;8.43;;;20.70;99.90;;;;;;4930892;29;20665;-63
2021/09/15 03:02:38;;;;;;;8.70;7.80;;;20.80;99.90;;;;;;4926960;29;20520;-62
2021/09/15 03:05:05;;;;;;;9.67;8.97;;;20.80;99.90;;;;;;4921678;29;20943;-63
2021/09/15 03:07:30;;;;;;;9.23;8.53;;;20.80;99.90;;;;;;4919437;29;20188;-63
2021/09/15 03:09:56;;;;;;;9.47;8.70;;;20.70;99.90;;;;;;4928890;29;20438;-63
2021/09/15 03:12:22;;;;;;;7.87;7.37;;;20.60;99.90;;;;;;4917057;29;20202;-62
2021/09/15 03:14:48;;;;;;;10.33;9.10;;;20.60;99.90;;;;;;4923078;29;20440;-63
2021/09/15 03:17:13;;;;;;;8.90;8.27;;;20.60;99.90;;;;;;4935243;29;20182;-63
2021/09/15 03:19:39;;;;;;;8.63;8.00;;;20.50;99.90;;;;;;4932850;29;20178;-63
2021/09/15 03:22:04;;;;;;;9.00;8.10;;;20.50;99.90;;;;;;4916950;29;20679;-63
2021/09/15 03:24:30;;;;;;;9.87;9.00;;;20.50;99.90;;;;;;4926203;29;20190;-63
2021/09/15 03:26:55;;;;;;;8.53;7.93;;;20.60;99.90;;;;;;4928840;29;20189;-63
2021/09/15 03:29:21;;;;;;;10.23;9.20;;;20.70;99.90;;;;;;4925019;29;20183;-63
2021/09/15 03:31:47;;;;;;;9.83;8.77;;;20.70;99.90;;;;;;4915825;29;20683;-63
2021/09/15 03:34:12;;;;;;;9.50;8.40;;;20.60;99.90;;;;;;4934149;29;20719;-63
2021/09/15 03:36:38;;;;;;;9.07;8.37;;;20.60;99.90;;;;;;4935684;29;20178;-63
2021/09/15 03:39:04;;;;;;;10.37;8.20;;;20.50;99.90;;;;;;4934364;29;20220;-62
2021/09/15 03:41:30;;;;;;;9.50;8.60;;;20.40;99.90;;;;;;4916420;29;20210;-63
2021/09/15 03:43:56;;;;;;;9.20;8.37;;;20.30;99.90;;;;;;4916359;29;20873;-63
2021/09/15 03:46:21;;;;;;;9.40;8.10;;;20.20;99.90;;;;;;4927863;29;20443;-63
2021/09/15 03:48:47;;;;;;;8.27;7.57;;;20.20;99.90;;;;;;4916105;29;20186;-63
2021/09/15 03:51:13;;;;;;;8.03;7.40;;;20.20;99.90;;;;;;4921450;29;20173;-63
2021/09/15 03:53:39;;;;;;;8.50;7.83;;;20.20;99.90;;;;;;4920410;29;20217;-63
2021/09/15 03:56:05;;;;;;;8.80;8.10;;;20.10;99.90;;;;;;4931944;29;20457;-62
2021/09/15 03:58:30;;;;;;;11.70;7.80;;;20.10;99.90;;;;;;4932971;29;20182;-63
2021/09/15 04:00:55;;;;;;;7.83;7.13;;;20.00;99.90;;;;;;4929495;29;20298;-63
2021/09/15 04:03:21;;;;;;;10.13;7.80;;;20.00;99.90;;;;;;4935195;29;20616;-63
2021/09/15 04:05:47;;;;;;;8.63;7.90;;;19.90;99.90;;;;;;4920928;29;20194;-63
2021/09/15 04:08:12;;;;;;;8.10;7.50;;;19.80;99.90;;;;;;4921148;29;20185;-63
2021/09/15 04:10:38;;;;;;;8.17;7.40;;;19.80;99.90;;;;;;4929765;29;20269;-62
2021/09/15 04:13:04;;;;;;;10.17;9.00;;;19.70;99.90;;;;;;4919343;29;20246;-63
2021/09/15 04:15:29;;;;;;;9.13;8.30;;;19.70;99.90;;;;;;4933002;29;20185;-63
2021/09/15 04:17:55;;;;;;;9.03;8.33;;;19.80;99.90;;;;;;4919229;29;20185;-63
2021/09/15 04:20:21;;;;;;;9.13;8.10;;;19.80;99.90;;;;;;4928690;29;20185;-62
2021/09/15 04:22:48;;;;;;;9.80;8.90;;;19.90;99.90;;;;;;4915548;29;20206;-63
2021/09/15 04:33:26;;;;;;;8.23;7.57;;;20.00;99.90;;;;;;4917460;29;20481;-63
2021/09/15 04:35:51;;;;;;;9.10;8.20;;;20.00;99.90;;;;;;4932546;29;20453;-63
2021/09/15 04:38:17;;;;;;;7.30;6.70;;;20.00;99.90;;;;;;4919829;29;20182;-63
2021/09/15 04:40:43;;;;;;;7.87;7.23;;;20.00;99.90;;;;;;4916752;29;20183;-63
2021/09/15 04:43:08;;;;;;;8.43;7.80;;;20.00;99.90;;;;;;4915399;29;20749;-63
2021/09/15 04:45:34;;;;;;;9.43;7.60;;;20.00;99.90;;;;;;4915601;29;20228;-63
2021/09/15 04:47:59;;;;;;;8.40;7.70;;;20.00;99.90;;;;;;4915377;29;20234;-63
2021/09/15 04:50:25;;;;;;;8.43;7.63;;;19.90;99.90;;;;;;4914835;29;20183;-63
2021/09/15 04:52:50;;;;;;;8.90;8.03;;;19.80;99.90;;;;;;4915316;29;20217;-63
2021/09/15 04:55:16;;;;;;;9.57;7.70;;;19.80;99.90;;;;;;4918966;29;20526;-63
2021/09/15 04:57:41;;;;;;;7.97;7.23;;;19.70;99.90;;;;;;4932055;29;20680;-63
2021/09/15 05:00:08;;;;;;;10.27;6.70;;;19.70;99.90;;;;;;4925863;29;20181;-63
2021/09/15 05:02:33;;;;;;;8.67;7.63;;;19.70;99.90;;;;;;4922505;29;20201;-63
2021/09/15 05:04:59;;;;;;;8.57;7.77;;;19.60;99.90;;;;;;4929509;29;20425;-62
2021/09/15 05:07:24;;;;;;;10.20;9.13;;;19.30;99.90;;;;;;4931029;29;20190;-62
2021/09/15 05:09:50;;;;;;;10.80;8.27;;;19.20;99.90;;;;;;4921707;29;20186;-62
2021/09/15 05:12:15;;;;;;;9.93;9.03;;;19.00;99.90;;;;;;4928574;29;20217;-62
2021/09/15 05:14:41;;;;;;;9.93;8.93;;;19.00;99.90;;;;;;4929129;29;20190;-62
2021/09/15 05:17:06;;;;;;;9.80;9.00;;;18.90;99.90;;;;;;4932242;29;20256;-62
2021/09/15 05:19:32;;;;;;;10.23;9.23;;;18.80;99.90;;;;;;4933564;29;20186;-62
2021/09/15 05:21:57;;;;;;;10.10;9.13;;;18.80;99.90;;;;;;4926441;29;20205;-62
2021/09/15 05:24:23;;;;;;;15.87;11.23;;;18.80;99.90;;;;;;4925329;29;20186;-62
2021/09/15 05:26:48;;;;;;;11.57;10.57;;;18.70;99.90;;;;;;4932813;29;20559;-62
2021/09/15 05:29:14;;;;;;;9.50;8.70;;;18.70;99.90;;;;;;4932199;29;20189;-62
2021/09/15 05:31:39;;;;;;;15.07;10.03;;;18.70;99.90;;;;;;4933124;29;20189;-62
2021/09/15 05:34:05;;;;;;;11.07;10.27;;;18.60;99.90;;;;;;4933295;29;20186;-62
2021/09/15 05:36:30;;;;;;;12.23;11.20;;;18.60;99.90;;;;;;4928567;29;20196;-61
2021/09/15 05:38:56;;;;;;;18.77;16.73;;;18.60;99.90;;;;;;4929238;29;20205;-62
2021/09/15 05:41:21;;;;;;;12.57;11.57;;;18.70;99.90;;;;;;4923552;29;20695;-61
2021/09/15 05:43:47;;;;;;;11.90;10.50;;;18.60;99.90;;;;;;4915148;29;20190;-61
2021/09/15 05:46:13;;;;;;;13.10;12.00;;;18.70;99.90;;;;;;4932255;29;20552;-62
2021/09/15 05:48:38;;;;;;;12.40;11.40;;;18.80;99.90;;;;;;4933875;29;20627;-62
2021/09/15 05:51:04;;;;;;;12.00;10.60;;;18.80;99.90;;;;;;4934094;29;20193;-61
2021/09/15 05:53:29;;;;;;;12.17;10.93;;;18.80;99.90;;;;;;4936521;29;20206;-61
2021/09/15 05:55:55;;;;;;;12.93;11.60;;;18.80;99.90;;;;;;4955536;28;20181;-61
2021/09/15 05:58:21;;;;;;;12.10;11.00;;;18.80;99.90;;;;;;4938945;28;20209;-61
2021/09/15 06:00:46;;;;;;;12.10;10.00;;;18.80;99.90;;;;;;4934454;29;20643;-61
2021/09/15 06:03:12;;;;;;;12.17;11.07;;;18.80;99.90;;;;;;4957965;28;20248;-61
2021/09/15 06:05:38;;;;;;;10.33;9.40;;;18.80;99.90;;;;;;4937305;29;20429;-61
2021/09/15 06:08:04;;;;;;;12.57;11.17;;;18.70;99.90;;;;;;4936931;29;20559;-61
2021/09/15 06:10:29;;;;;;;14.07;12.50;;;18.70;99.90;;;;;;4919871;29;20253;-61
2021/09/15 06:12:55;;;;;;;20.47;15.87;;;18.70;99.90;;;;;;4918128;29;20482;-61
2021/09/15 06:15:21;;;;;;;12.63;11.43;;;18.80;99.90;;;;;;4918654;29;20181;-61
2021/09/15 06:17:47;;;;;;;16.90;12.30;;;18.80;99.90;;;;;;4935902;29;20306;-61
2021/09/15 06:20:12;;;;;;;13.17;11.70;;;18.70;99.90;;;;;;4927286;29;20174;-63
2021/09/15 06:22:38;;;;;;;12.80;11.40;;;18.70;99.90;;;;;;4917923;29;20758;-61
2021/09/15 06:25:04;;;;;;;15.40;10.47;;;18.60;99.90;;;;;;4924491;29;20197;-61
2021/09/15 06:27:30;;;;;;;12.90;10.80;;;18.70;99.90;;;;;;4922476;29;20182;-61
2021/09/15 06:29:55;;;;;;;15.03;12.03;;;18.60;99.90;;;;;;4922263;29;20957;-61
2021/09/15 06:32:22;;;;;;;12.60;11.40;;;18.60;99.90;;;;;;4936791;29;20209;-62
2021/09/15 06:34:48;;;;;;;11.13;10.17;;;18.60;99.90;;;;;;4921370;29;20174;-61
2021/09/15 06:37:15;;;;;;;16.10;12.90;;;18.60;99.90;;;;;;4931530;29;20847;-61
2021/09/15 06:39:41;;;;;;;13.73;10.77;;;18.60;99.90;;;;;;4936650;29;20481;-61
2021/09/15 06:42:07;;;;;;;11.07;10.07;;;18.60;99.90;;;;;;4936651;29;20476;-61
2021/09/15 06:44:33;;;;;;;11.40;10.40;;;18.50;99.90;;;;;;4936702;29;20784;-61
2021/09/15 06:46:58;;;;;;;11.87;10.70;;;18.40;99.90;;;;;;4936617;29;20173;-61
2021/09/15 06:49:24;;;;;;;12.00;10.80;;;18.40;99.90;;;;;;4935635;29;20577;-60
2021/09/15 06:51:49;;;;;;;11.80;10.70;;;18.40;99.90;;;;;;4926674;29;20813;-61
2021/09/15 06:54:15;;;;;;;14.60;11.70;;;18.40;99.90;;;;;;4933409;29;20310;-61
2021/09/15 06:56:40;;;;;;;11.90;10.80;;;18.40;99.90;;;;;;4933496;29;20174;-61
2021/09/15 06:59:06;;;;;;;11.70;10.70;;;18.40;99.90;;;;;;4932942;29;20178;-61
2021/09/15 07:01:31;;;;;;;12.30;11.10;;;18.50;99.90;;;;;;4933127;29;20690;-61
2021/09/15 07:03:57;;;;;;;12.03;10.23;;;18.50;99.90;;;;;;4932944;29;20198;-62
2021/09/15 07:06:23;;;;;;;12.47;10.00;;;18.60;99.90;;;;;;4931839;29;20181;-62
2021/09/15 07:08:52;;;;;;;11.40;9.60;;;18.60;99.90;;;;;;4931383;29;20174;-62
2021/09/15 07:11:18;;;;;;;12.00;10.90;;;18.70;99.90;;;;;;4932968;29;20421;-61
2021/09/15 07:13:44;;;;;;;11.30;10.20;;;18.80;99.90;;;;;;4932000;29;20472;-61
2021/09/15 07:16:09;;;;;;;10.60;9.80;;;19.00;99.90;;;;;;4914915;29;20657;-62
2021/09/15 07:18:35;;;;;;;10.00;9.20;;;19.00;99.90;;;;;;4916766;29;20422;-61
2021/09/15 07:21:01;;;;;;;13.00;10.53;;;19.00;99.90;;;;;;4916758;29;20181;-64
2021/09/15 07:23:26;;;;;;;11.17;9.10;;;19.10;99.90;;;;;;4916928;29;20216;-62
2021/09/15 07:25:52;;;;;;;9.17;8.20;;;19.10;99.90;;;;;;4917008;29;20185;-62
2021/09/15 07:28:18;;;;;;;9.47;8.57;;;19.00;99.90;;;;;;4916812;29;20190;-62
2021/09/15 07:30:43;;;;;;;9.33;8.50;;;19.10;99.90;;;;;;4916863;29;20194;-62
2021/09/15 07:33:09;;;;;;;11.50;8.77;;;19.10;99.90;;;;;;4916534;29;20214;-62
2021/09/15 07:35:34;;;;;;;10.07;8.37;;;19.20;99.90;;;;;;4916663;29;20220;-62
2021/09/15 07:38:00;;;;;;;9.63;8.67;;;19.20;99.90;;;;;;4916456;29;20174;-62
2021/09/15 07:40:25;;;;;;;7.63;6.93;;;19.30;99.90;;;;;;4916790;29;20205;-62
2021/09/15 07:42:51;;;;;;;7.03;6.40;;;19.30;99.90;;;;;;4916651;29;20664;-62
2021/09/15 07:45:16;;;;;;;8.10;7.10;;;19.30;99.90;;;;;;4916694;29;20182;-62
2021/09/15 07:47:43;;;;;;;8.23;7.43;;;19.20;99.90;;;;;;4916326;29;20174;-62
2021/09/15 07:50:10;;;;;;;8.57;7.03;;;19.20;99.90;;;;;;4916429;29;20262;-62
2021/09/15 07:52:35;;;;;;;6.63;6.13;;;19.10;99.90;;;;;;4916501;29;21046;-62
2021/09/15 07:55:01;;;;;;;7.77;7.07;;;19.20;99.90;;;;;;4916556;29;20506;-62
2021/09/15 07:57:27;;;;;;;9.43;7.20;;;19.20;99.90;;;;;;4916197;29;20174;-62
2021/09/15 07:59:52;;;;;;;8.93;8.10;;;19.30;99.90;;;;;;4916485;29;20178;-62
2021/09/15 08:02:18;;;;;;;8.77;7.10;;;19.40;99.90;;;;;;4916331;29;20257;-62
2021/09/15 08:04:43;;;;;;;7.70;6.90;;;19.40;99.90;;;;;;4916194;29;20187;-62
2021/09/15 08:07:09;;;;;;;10.03;7.03;;;19.50;99.90;;;;;;4916180;29;20249;-61
2021/09/15 08:09:35;;;;;;;7.90;6.30;;;19.50;99.90;;;;;;4916079;29;20262;-62
2021/09/15 08:12:01;;;;;;;7.80;6.13;;;19.50;99.90;;;;;;4916137;29;20248;-62
2021/09/15 08:14:26;;;;;;;7.50;6.20;;;19.50;99.90;;;;;;4916176;29;20170;-62
2021/09/15 08:16:52;;;;;;;6.60;6.00;;;19.60;99.90;;;;;;4916170;29;20434;-62
2021/09/15 08:19:19;;;;;;;8.93;6.40;;;19.60;99.90;;;;;;4915505;29;20181;-64
2021/09/15 08:21:45;;;;;;;7.03;6.23;;;19.70;99.90;;;;;;4916029;29;20425;-62
2021/09/15 08:24:11;;;;;;;7.83;6.10;;;19.60;99.90;;;;;;4916132;29;20905;-62
2021/09/15 08:26:36;;;;;;;8.20;6.30;;;19.60;99.90;;;;;;4916036;29;20178;-62
2021/09/15 08:29:02;;;;;;;6.87;6.00;;;19.60;99.90;;;;;;4915713;29;20629;-62
2021/09/15 08:31:28;;;;;;;7.83;6.80;;;19.50;99.90;;;;;;4916008;29;20593;-62
2021/09/15 08:33:54;;;;;;;10.00;6.90;;;19.50;99.90;;;;;;4915502;29;20562;-62
2021/09/15 08:36:19;;;;;;;7.40;6.70;;;19.50;99.90;;;;;;4916167;29;20192;-62
2021/09/15 08:38:45;;;;;;;9.97;7.20;;;19.50;99.90;;;;;;4914351;29;20633;-62
2021/09/15 08:41:10;;;;;;;9.63;7.47;;;19.40;99.90;;;;;;4915888;29;20179;-61
2021/09/15 08:43:37;;;;;;;9.60;7.40;;;19.20;99.90;;;;;;4915748;29;20202;-61
2021/09/15 08:46:05;;;;;;;10.63;8.97;;;19.10;99.90;;;;;;4915830;29;20230;-60
2021/09/15 08:48:34;;;;;;;9.27;8.37;;;18.90;99.90;;;;;;4915392;29;20936;-63
2021/09/15 08:51:00;;;;;;;10.60;9.50;;;18.80;99.90;;;;;;4915747;29;20779;-62
2021/09/15 08:53:27;;;;;;;10.73;9.67;;;18.80;99.90;;;;;;4915614;29;20477;-60
2021/09/15 08:55:52;;;;;;;12.00;9.67;;;18.80;99.90;;;;;;4915814;29;20426;-60
2021/09/15 08:58:19;;;;;;;10.90;9.20;;;18.70;99.90;;;;;;4915381;29;20905;-62
2021/09/15 09:00:46;;;;;;;9.93;9.00;;;18.60;99.90;;;;;;4915664;29;20256;-61
2021/09/15 09:03:12;;;;;;;9.30;7.93;;;18.70;99.90;;;;;;4915512;29;20925;-62
2021/09/15 09:05:37;;;;;;;10.30;9.30;;;18.60;99.90;;;;;;4915547;29;20431;-62
2021/09/15 09:08:16;;;;;;;9.07;8.27;;;18.60;99.90;;;;;;4915363;29;20668;-62
2021/09/15 09:10:50;;;;;;;11.90;9.00;;;18.60;99.90;;;;;;4915654;29;20196;-62
2021/09/15 09:13:18;;;;;;;10.20;9.17;;;18.60;99.90;;;;;;4915289;29;20523;-63
2021/09/15 09:15:43;;;;;;;9.70;8.30;;;18.60;99.90;;;;;;4915470;29;20422;-63
2021/09/15 09:18:09;;;;;;;9.30;8.40;;;18.60;99.90;;;;;;4915192;29;20794;-60
2021/09/15 09:20:36;;;;;;;8.90;8.00;;;18.50;99.90;;;;;;4915436;29;20185;-63
2021/09/15 09:23:06;;;;;;;9.67;8.30;;;18.40;99.90;;;;;;4915721;29;20190;-61
2021/09/15 09:25:42;;;;;;;8.63;7.93;;;18.40;99.90;;;;;;4915465;29;20430;-63
2021/09/15 09:28:29;;;;;;;9.77;8.87;;;18.30;99.90;;;;;;4915103;29;20932;-63
2021/09/15 09:31:06;;;;;;;11.03;9.00;;;18.20;99.90;;;;;;4918084;29;20647;-62
2021/09/15 09:33:34;;;;;;;8.50;7.70;;;18.20;99.90;;;;;;4918920;29;20482;-62
2021/09/15 09:36:04;;;;;;;12.63;9.50;;;18.20;99.90;;;;;;4918935;29;20848;-62
2021/09/15 09:38:38;;;;;;;9.60;8.70;;;18.20;99.90;;;;;;4918641;29;20501;-63
2021/09/15 09:41:11;;;;;;;10.27;8.47;;;18.30;99.90;;;;;;4918943;29;20437;-62
2021/09/15 09:43:38;;;;;;;8.23;7.43;;;18.30;99.90;;;;;;4919096;29;20471;-63
2021/09/15 09:46:06;;;;;;;9.73;8.73;;;18.30;99.90;;;;;;4918754;29;20517;-63
2021/09/15 09:48:54;;;;;;;9.93;8.47;;;18.40;99.90;;;;;;4918530;29;20428;-62
2021/09/15 09:51:39;;;;;;;10.20;7.80;;;18.50;99.90;;;;;;4918747;29;20425;-62
2021/09/15 09:54:06;;;;;;;9.80;8.90;;;18.60;99.90;;;;;;4918702;29;20443;-63
2021/09/15 09:56:34;;;;;;;8.70;8.00;;;18.70;99.90;;;;;;4918993;29;20476;-63
2021/09/15 09:59:00;;;;;;;8.50;7.37;;;18.80;99.90;;;;;;4918281;29;20422;-63
2021/09/15 10:01:28;;;;;;;7.47;6.87;;;18.90;99.90;;;;;;4918469;29;20446;-62
2021/09/15 10:03:55;;;;;;;9.73;8.30;;;19.00;99.90;;;;;;4918375;29;20955;-62
2021/09/15 10:06:21;;;;;;;8.83;8.03;;;19.10;99.90;;;;;;4918427;29;20457;-60
2021/09/15 10:08:48;;;;;;;7.27;5.83;;;19.30;99.90;;;;;;4918131;29;20932;-61
2021/09/15 10:11:15;;;;;;;8.20;7.40;;;19.40;99.90;;;;;;4918435;29;20446;-62
2021/09/15 10:13:40;;;;;;;7.77;6.97;;;19.50;99.90;;;;;;4918248;29;20865;-62
2021/09/15 10:16:07;;;;;;;7.97;6.77;;;19.70;99.90;;;;;;4918151;29;20415;-63
2021/09/15 10:18:32;;;;;;;9.20;8.43;;;20.00;99.90;;;;;;4917954;29;20170;-62
2021/09/15 10:20:59;;;;;;;8.00;7.30;;;20.00;99.90;;;;;;4918263;29;20551;-62
2021/09/15 10:23:47;;;;;;;6.43;5.97;;;20.00;99.90;;;;;;4918167;29;20213;-63
2021/09/15 10:26:31;;;;;;;6.60;6.00;;;20.20;99.90;;;;;;4918097;29;20430;-62
2021/09/15 10:29:28;;;;;;;7.60;6.87;;;20.40;99.90;;;;;;4917678;29;20921;-62
2021/09/15 10:32:11;;;;;;;7.20;6.60;;;20.40;99.90;;;;;;4917026;29;20561;-62
2021/09/15 10:34:37;;;;;;;8.60;6.70;;;20.40;99.90;;;;;;4917693;29;20999;-62
2021/09/15 10:37:04;;;;;;;6.77;6.07;;;20.30;99.90;;;;;;4917874;29;20430;-62
2021/09/15 10:39:29;;;;;;;7.17;6.47;;;20.40;99.90;;;;;;4917618;29;20422;-62
2021/09/15 10:41:55;;;;;;;7.30;6.60;;;20.20;99.90;;;;;;4917494;29;20431;-63
2021/09/15 10:44:21;;;;;;;12.10;7.53;;;20.20;99.90;;;;;;4916476;29;20655;-63
2021/09/15 10:46:47;;;;;;;6.93;6.23;;;20.20;99.90;;;;;;4917746;29;20234;-63
2021/09/15 10:49:17;;;;;;;7.40;6.80;;;20.20;99.90;;;;;;4917266;29;20959;-63
2021/09/15 10:51:42;;;;;;;8.07;7.40;;;20.20;99.90;;;;;;4917434;29;20462;-62
2021/09/15 10:54:43;;;;;;;6.60;5.90;;;20.20;99.90;;;;;;4917565;29;20821;-63
2021/09/15 10:57:20;;;;;;;8.30;7.60;;;20.20;99.90;;;;;;4918106;29;20185;-62
2021/09/15 10:59:55;;;;;;;9.50;6.27;;;20.30;99.90;;;;;;4936341;29;20516;-63
2021/09/15 11:02:27;;;;;;;7.33;6.63;;;20.50;99.90;;;;;;4936543;29;20459;-62
2021/09/15 11:04:53;;;;;;;8.20;7.40;;;20.80;99.90;;;;;;4936591;29;20463;-62
2021/09/15 11:07:48;;;;;;;8.50;7.80;;;20.90;99.90;;;;;;4936025;29;20540;-62
2021/09/15 11:10:31;;;;;;;6.70;6.10;;;20.90;99.90;;;;;;4936132;29;20619;-63
2021/09/15 11:12:58;;;;;;;8.43;7.50;;;20.90;99.90;;;;;;4936097;29;20461;-63
2021/09/15 11:15:29;;;;;;;8.77;6.70;;;20.80;99.90;;;;;;4936065;29;20465;-62
2021/09/15 11:17:55;;;;;;;8.90;7.17;;;20.70;99.90;;;;;;4935891;29;20425;-63
2021/09/15 11:20:26;;;;;;;7.77;7.07;;;20.80;99.90;;;;;;4934723;29;20486;-63
2021/09/15 11:22:52;;;;;;;8.80;6.90;;;20.80;99.90;;;;;;4936015;29;20445;-63
2021/09/15 11:25:19;;;;;;;7.67;6.83;;;20.80;99.90;;;;;;4936027;29;20433;-63
2021/09/15 11:28:05;;;;;;;6.27;5.53;;;21.00;99.90;;;;;;4935910;29;20441;-63
2021/09/15 11:30:31;;;;;;;7.67;6.97;;;21.00;99.90;;;;;;4935931;29;20496;-63
2021/09/15 11:32:57;;;;;;;7.80;6.90;;;20.90;99.90;;;;;;4935541;29;20870;-63
2021/09/15 11:35:23;;;;;;;7.37;6.67;;;21.00;99.90;;;;;;4935804;29;20273;-63
2021/09/15 11:37:49;;;;;;;7.13;6.63;;;20.80;99.90;;;;;;4935489;29;20512;-63
2021/09/15 11:40:15;;;;;;;8.30;7.60;;;20.80;99.90;;;;;;4935769;29;20448;-63
2021/09/15 11:42:40;;;;;;;7.50;6.90;;;20.70;99.90;;;;;;4935638;29;20686;-62
2021/09/15 11:45:17;;;;;;;8.20;7.60;;;20.60;99.90;;;;;;4935601;29;20180;-63
2021/09/15 11:47:44;;;;;;;7.50;6.80;;;20.60;99.90;;;;;;4934031;29;20185;-63
2021/09/15 11:50:19;;;;;;;7.60;6.90;;;20.60;99.90;;;;;;4934266;29;20429;-63
2021/09/15 11:52:49;;;;;;;8.23;7.47;;;20.70;99.90;;;;;;4934783;28;20475;-63
2021/09/15 11:55:17;;;;;;;6.87;6.23;;;20.70;99.90;;;;;;4935484;29;20430;-63
2021/09/15 11:57:47;;;;;;;7.70;7.10;;;20.70;99.90;;;;;;4935205;29;20460;-63
2021/09/15 12:00:13;;;;;;;10.57;6.80;;;20.80;99.90;;;;;;4935357;29;20425;-63
2021/09/15 12:02:40;;;;;;;6.90;6.40;;;20.90;99.90;;;;;;4935248;29;20504;-63
2021/09/15 12:05:08;;;;;;;6.83;6.13;;;21.00;99.90;;;;;;4935301;29;20432;-63
2021/09/15 12:07:33;;;;;;;7.80;7.00;;;21.00;99.90;;;;;;4935284;29;20470;-63
2021/09/15 12:09:59;;;;;;;7.13;6.50;;;21.00;99.90;;;;;;4935244;29;20460;-63
2021/09/15 12:12:28;;;;;;;7.90;7.20;;;21.10;99.90;;;;;;4935002;29;20683;-62
2021/09/15 12:14:57;;;;;;;8.00;7.20;;;21.20;99.90;;;;;;4935001;29;20177;-63
2021/09/15 12:17:23;;;;;;;7.07;6.47;;;21.10;99.90;;;;;;4934789;29;20426;-63
2021/09/15 12:19:51;;;;;;;10.33;6.87;;;21.10;99.90;;;;;;4935007;29;20582;-63
2021/09/15 12:22:21;;;;;;;8.13;7.43;;;21.10;99.90;;;;;;4933817;29;20738;-63
2021/09/15 12:25:02;;;;;;;6.90;5.40;;;21.00;99.90;;;;;;4933660;29;20947;-63
2021/09/15 12:27:28;;;;;;;6.93;5.80;;;21.00;99.90;;;;;;4934643;29;20433;-63
2021/09/15 12:30:07;;;;;;;8.13;6.87;;;21.00;99.90;;;;;;4934967;29;20565;-63
2021/09/15 12:32:38;;;;;;;7.87;7.17;;;21.00;99.90;;;;;;4934741;29;20838;-63
2021/09/15 12:35:05;;;;;;;7.90;7.10;;;21.10;99.90;;;;;;4934919;29;20912;-62
2021/09/15 12:37:39;;;;;;;7.40;6.60;;;21.20;99.90;;;;;;4935297;29;20795;-63
2021/09/15 12:40:05;;;;;;;8.47;6.53;;;21.50;99.90;;;;;;4934982;29;20425;-63
2021/09/15 12:42:39;;;;;;;6.97;6.27;;;21.70;99.90;;;;;;4934702;29;20796;-63
2021/09/15 12:45:13;;;;;;;6.77;6.10;;;22.10;99.90;;;;;;4934784;29;20432;-64
2021/09/15 12:47:44;;;;;;;9.20;6.27;;;22.50;99.90;;;;;;4934456;29;20457;-64
2021/09/15 12:50:25;;;;;;;7.10;6.40;;;22.60;99.90;;;;;;4934614;29;20859;-63